Time;durP1;ratioP1;P1;durP2;ratioP2;P2;SDS_P1;SDS_P2;PMS_P1;PMS_P2;Temp;Humidity;BMP_temperature;BMP_pressure;BME280_temperature;BME280_humidity;BME280_pressure;Samples;Min_cycle;Max_cycle;Signal;HPM_P1;HPM_P2
2021/09/09 00:02:17;;;;;;;17.70;9.45;;;;;;;-149.78;100.00;49931.69;5081895;28;20032;-61
2021/09/09 00:04:43;;;;;;;23.58;10.98;;;;;;;-149.78;100.00;49935.59;5089779;28;20111;-60
2021/09/09 00:07:09;;;;;;;18.50;10.18;;;;;;;-149.78;100.00;49919.94;5093626;28;20056;-60
2021/09/09 00:09:34;;;;;;;17.38;10.73;;;;;;;-149.78;100.00;49937.56;5090912;28;20036;-60
2021/09/09 00:12:00;;;;;;;19.20;10.23;;;;;;;-149.78;100.00;49939.50;5077385;28;20035;-60
2021/09/09 00:14:26;;;;;;;17.50;10.52;;;;;;;-149.78;100.00;49923.88;5086815;28;20066;-60
2021/09/09 00:16:51;;;;;;;18.00;10.65;;;;;;;-149.78;100.00;49902.34;5088204;28;20055;-61
2021/09/09 00:19:17;;;;;;;22.02;10.18;;;;;;;-149.78;100.00;49919.94;5094969;28;20074;-60
2021/09/09 00:21:44;;;;;;;20.60;10.30;;;;;;;-149.78;100.00;49982.53;5095640;28;20395;-60
2021/09/09 00:24:10;;;;;;;19.58;10.52;;;;;;;-149.78;100.00;49955.16;5091113;28;20039;-60
2021/09/09 00:26:35;;;;;;;20.88;10.73;;;;;;;-149.78;100.00;49962.97;5087940;28;20424;-60
2021/09/09 00:29:01;;;;;;;22.10;11.38;;;;;;;-149.78;100.00;49927.78;5087887;28;20020;-60
2021/09/09 00:31:28;;;;;;;22.60;12.10;;;;;;;-149.78;100.00;49935.59;5081213;28;20029;-60
2021/09/09 00:33:54;;;;;;;21.33;10.98;;;;;;;-149.78;100.00;49923.88;5088071;28;20036;-60
2021/09/09 00:36:19;;;;;;;22.20;11.30;;;;;;;-149.78;100.00;49931.69;5074705;28;20429;-60
2021/09/09 00:38:45;;;;;;;19.23;11.18;;;;;;;-149.78;100.00;49927.78;5086823;28;20059;-60
2021/09/09 00:41:11;;;;;;;21.40;11.30;;;;;;;-149.78;100.00;49935.59;5075114;28;20055;-60
2021/09/09 00:43:36;;;;;;;21.10;12.07;;;;;;;-149.78;100.00;49935.59;5078291;28;20474;-61
2021/09/09 00:46:02;;;;;;;20.92;11.38;;;;;;;-149.78;100.00;49955.16;5088479;28;20490;-61
2021/09/09 00:48:28;;;;;;;23.35;11.68;;;;;;;-149.78;100.00;49957.09;5080221;28;20044;-61
2021/09/09 00:50:53;;;;;;;20.15;11.13;;;;;;;-149.78;100.00;49927.78;5083457;28;20379;-61
2021/09/09 00:53:20;;;;;;;26.23;12.80;;;;;;;-149.78;100.00;49955.16;5083263;28;20043;-60
2021/09/09 00:55:49;;;;;;;25.05;11.98;;;;;;;-149.78;100.00;49970.78;5092828;28;20024;-60
2021/09/09 00:58:16;;;;;;;21.98;11.75;;;;;;;-149.78;100.00;49966.88;5074890;28;20114;-60
2021/09/09 01:00:41;;;;;;;26.77;11.98;;;;;;;-149.78;100.00;49916.03;5088507;28;20032;-60
2021/09/09 01:03:07;;;;;;;22.40;12.05;;;;;;;-149.78;100.00;49953.19;5086689;28;20478;-60
2021/09/09 01:05:34;;;;;;;26.55;12.13;;;;;;;-149.78;100.00;49953.19;5076961;28;20036;-60
2021/09/09 01:08:00;;;;;;;19.83;12.38;;;;;;;-149.78;100.00;49966.88;5088234;28;20024;-60
2021/09/09 01:10:25;;;;;;;21.77;11.43;;;;;;;-149.78;100.00;49955.16;5066877;28;20046;-60
2021/09/09 01:12:51;;;;;;;20.63;12.30;;;;;;;-149.78;100.00;49939.50;5088012;28;20032;-61
2021/09/09 01:15:17;;;;;;;21.95;12.15;;;;;;;-149.78;100.00;49947.34;5085031;28;20040;-61
2021/09/09 01:17:42;;;;;;;21.23;12.05;;;;;;;-149.78;100.00;49962.97;5095612;28;20032;-60
2021/09/09 01:20:08;;;;;;;22.00;11.45;;;;;;;-149.78;100.00;49951.25;5093859;28;20079;-60
2021/09/09 01:22:34;;;;;;;20.55;11.13;;;;;;;-149.78;100.00;49945.38;5095755;28;20447;-60
2021/09/09 01:25:00;;;;;;;21.40;11.57;;;;;;;-149.78;100.00;49921.91;5067398;28;20172;-60
2021/09/09 01:27:27;;;;;;;19.67;12.05;;;;;;;-149.78;100.00;49951.25;5084086;28;20040;-60
2021/09/09 01:29:53;;;;;;;20.98;11.95;;;;;;;-149.78;100.00;49957.09;5092765;28;20028;-60
2021/09/09 01:32:19;;;;;;;21.83;11.98;;;;;;;-149.78;100.00;49980.56;5085917;28;20147;-61
2021/09/09 01:34:45;;;;;;;20.70;11.60;;;;;;;-149.78;100.00;49966.88;5080035;28;20398;-61
2021/09/09 01:37:11;;;;;;;21.92;11.93;;;;;;;-149.78;100.00;49966.88;5087817;28;20032;-60
2021/09/09 01:39:41;;;;;;;22.40;12.93;;;;;;;-149.78;100.00;49939.50;5085894;28;20059;-60
2021/09/09 01:42:07;;;;;;;28.20;12.25;;;;;;;-149.78;100.00;49982.53;5090059;28;20507;-60
2021/09/09 01:44:34;;;;;;;20.75;12.45;;;;;;;-149.78;100.00;50006.00;5067160;28;20068;-60
2021/09/09 01:46:59;;;;;;;21.98;12.52;;;;;;;-149.78;100.00;49939.50;5066069;28;20047;-61
2021/09/09 01:49:26;;;;;;;23.10;12.75;;;;;;;-149.78;100.00;49959.06;5081979;28;20036;-60
2021/09/09 01:51:52;;;;;;;19.35;11.88;;;;;;;-149.78;100.00;49992.31;5083521;28;20115;-61
2021/09/09 01:54:17;;;;;;;22.08;11.77;;;;;;;-149.78;100.00;49959.06;5088431;28;20115;-60
2021/09/09 01:56:43;;;;;;;23.00;12.18;;;;;;;-149.78;100.00;49962.97;5085477;28;20043;-60
2021/09/09 01:59:09;;;;;;;28.67;11.43;;;;;;;-149.78;100.00;49986.44;5087216;28;20044;-60
2021/09/09 02:01:35;;;;;;;22.42;13.07;;;;;;;-149.78;100.00;49951.25;5087667;28;20028;-60
2021/09/09 02:04:01;;;;;;;22.38;11.80;;;;;;;-149.78;100.00;49937.56;5085782;28;20361;-60
2021/09/09 02:06:27;;;;;;;24.67;12.68;;;;;;;-149.78;100.00;49966.88;5086943;28;20035;-60
2021/09/09 02:08:53;;;;;;;24.00;11.73;;;;;;;-149.78;100.00;49982.53;5072951;28;20028;-60
2021/09/09 02:11:21;;;;;;;25.02;12.85;;;;;;;-149.78;100.00;49998.19;5064564;28;20031;-60
2021/09/09 02:13:47;;;;;;;21.30;12.60;;;;;;;-149.78;100.00;49978.63;5083457;28;20472;-61
2021/09/09 02:16:13;;;;;;;24.08;13.00;;;;;;;-149.78;100.00;49970.78;5087247;28;20047;-60
2021/09/09 02:18:39;;;;;;;22.73;12.48;;;;;;;-149.78;100.00;49978.63;5091244;28;20056;-61
2021/09/09 02:21:05;;;;;;;21.67;12.70;;;;;;;-149.78;100.00;50006.00;5092979;28;20386;-60
2021/09/09 02:23:31;;;;;;;21.85;12.80;;;;;;;-149.78;100.00;49974.72;5091662;28;20118;-60
2021/09/09 02:25:57;;;;;;;23.02;12.52;;;;;;;-149.78;100.00;49986.44;5079032;28;20111;-61
2021/09/09 02:28:25;;;;;;;21.52;12.20;;;;;;;-149.78;100.00;49988.41;5076114;28;20085;-60
2021/09/09 02:30:51;;;;;;;22.08;12.63;;;;;;;-149.78;100.00;49992.31;5086215;28;20441;-60
2021/09/09 02:33:16;;;;;;;28.25;13.43;;;;;;;-149.78;100.00;49990.34;5089224;28;20058;-61
2021/09/09 02:35:42;;;;;;;25.33;13.48;;;;;;;-149.78;100.00;49986.44;5079791;28;20028;-60
2021/09/09 02:38:08;;;;;;;23.40;13.20;;;;;;;-149.78;100.00;50013.81;5093580;28;20028;-60
2021/09/09 02:40:34;;;;;;;25.20;14.15;;;;;;;-149.78;100.00;49996.22;5093340;28;20089;-60
2021/09/09 02:43:00;;;;;;;24.35;13.55;;;;;;;-149.78;100.00;50000.13;5084673;28;20032;-60
2021/09/09 02:45:26;;;;;;;23.17;13.05;;;;;;;-149.78;100.00;50002.09;5082429;28;20524;-60
2021/09/09 02:47:51;;;;;;;25.48;12.90;;;;;;;-149.78;100.00;50009.91;5090724;28;20028;-60
2021/09/09 02:50:17;;;;;;;23.35;12.75;;;;;;;-149.78;100.00;50002.09;5087748;28;20415;-60
2021/09/09 02:52:43;;;;;;;23.45;13.45;;;;;;;-149.78;100.00;49959.06;5090758;28;20111;-60
2021/09/09 02:55:10;;;;;;;24.90;13.23;;;;;;;-149.78;100.00;49998.19;5094145;28;20039;-60
2021/09/09 02:57:37;;;;;;;26.00;14.30;;;;;;;-149.78;100.00;49986.44;5092189;28;20051;-61
2021/09/09 03:00:05;;;;;;;31.92;14.75;;;;;;;-149.78;100.00;50002.09;5093728;28;20073;-60
2021/09/09 03:02:30;;;;;;;29.23;14.27;;;;;;;-149.78;100.00;50002.09;5088459;28;20084;-60
2021/09/09 03:04:56;;;;;;;26.10;13.70;;;;;;;-149.78;100.00;50011.88;5091256;28;20118;-60
2021/09/09 03:07:22;;;;;;;22.52;12.95;;;;;;;-149.78;100.00;49982.53;5080438;28;20040;-60
2021/09/09 03:09:47;;;;;;;28.48;14.32;;;;;;;-149.78;100.00;50006.00;5074391;28;20028;-60
2021/09/09 03:12:13;;;;;;;28.48;13.82;;;;;;;-149.78;100.00;49990.34;5084225;28;20032;-60
2021/09/09 03:14:39;;;;;;;22.95;13.55;;;;;;;-149.78;100.00;49994.25;5088528;28;20052;-60
2021/09/09 03:17:05;;;;;;;25.05;13.73;;;;;;;-149.78;100.00;49974.72;5073194;28;20036;-60
2021/09/09 03:19:31;;;;;;;27.90;14.80;;;;;;;-149.78;100.00;49994.25;5086435;28;20048;-61
2021/09/09 03:21:58;;;;;;;24.42;14.45;;;;;;;-149.78;100.00;49992.31;5089969;28;20165;-61
2021/09/09 03:24:24;;;;;;;30.30;15.07;;;;;;;-149.78;100.00;50002.09;5089619;28;20036;-60
2021/09/09 03:26:51;;;;;;;27.15;15.13;;;;;;;-149.78;100.00;49978.63;5081263;28;20056;-60
2021/09/09 03:29:17;;;;;;;32.03;15.23;;;;;;;-149.78;100.00;49970.78;5086981;28;20109;-60
2021/09/09 03:31:43;;;;;;;29.80;14.02;;;;;;;-149.78;100.00;50004.03;5083427;28;20082;-60
2021/09/09 03:34:08;;;;;;;25.48;13.68;;;;;;;-149.78;100.00;49980.56;5078800;28;20044;-60
2021/09/09 03:36:34;;;;;;;28.63;14.48;;;;;;;-149.78;100.00;49970.78;5069204;28;20032;-61
2021/09/09 03:39:01;;;;;;;26.15;13.40;;;;;;;-149.78;100.00;49986.44;5087999;28;20119;-60
2021/09/09 03:41:27;;;;;;;25.88;14.07;;;;;;;-149.78;100.00;50000.13;5092652;28;20098;-60
2021/09/09 03:43:53;;;;;;;23.00;12.95;;;;;;;-149.78;100.00;50002.09;5089945;28;20422;-60
2021/09/09 03:46:18;;;;;;;21.23;13.07;;;;;;;-149.78;100.00;49939.50;5090364;28;20039;-60
2021/09/09 03:48:44;;;;;;;22.55;12.90;;;;;;;-149.78;100.00;49982.53;5085986;28;20115;-60
2021/09/09 03:51:09;;;;;;;22.45;12.48;;;;;;;-149.78;100.00;49978.63;5082590;28;20090;-60
2021/09/09 03:53:35;;;;;;;21.45;12.02;;;;;;;-149.78;100.00;50009.91;5077319;28;20024;-60
2021/09/09 03:56:00;;;;;;;24.58;13.40;;;;;;;-149.78;100.00;50006.00;5081179;28;20032;-60
2021/09/09 03:58:26;;;;;;;22.80;13.48;;;;;;;-149.78;100.00;50013.81;5081620;28;20040;-60
2021/09/09 04:00:52;;;;;;;25.20;12.52;;;;;;;-149.78;100.00;50004.03;5086779;28;20029;-60
2021/09/09 04:03:18;;;;;;;24.05;13.43;;;;;;;-149.78;100.00;50000.13;5089384;28;20127;-60
2021/09/09 04:05:43;;;;;;;23.88;13.02;;;;;;;-149.78;100.00;50013.81;5091075;28;20487;-60
2021/09/09 04:08:09;;;;;;;27.77;13.45;;;;;;;-149.78;100.00;50009.91;5085261;28;20024;-61
2021/09/09 04:10:35;;;;;;;23.65;14.02;;;;;;;-149.78;100.00;50002.09;5084884;28;20036;-60
2021/09/09 04:13:01;;;;;;;26.05;13.13;;;;;;;-149.78;100.00;49998.19;5086168;28;20050;-60
2021/09/09 04:15:27;;;;;;;24.02;13.10;;;;;;;-149.78;100.00;50013.81;5068009;28;20537;-60
2021/09/09 04:17:52;;;;;;;21.08;13.23;;;;;;;-149.78;100.00;50002.09;5087374;28;20028;-60
2021/09/09 04:20:18;;;;;;;25.77;13.40;;;;;;;-149.78;100.00;50017.72;5084372;28;20048;-60
2021/09/09 04:22:43;;;;;;;25.92;13.30;;;;;;;-149.78;100.00;50006.00;5086147;28;20077;-60
2021/09/09 04:25:10;;;;;;;20.80;13.10;;;;;;;-149.78;100.00;50013.81;5085184;28;20048;-60
2021/09/09 04:27:35;;;;;;;23.77;13.23;;;;;;;-149.78;100.00;50029.47;5078846;28;20075;-60
2021/09/09 04:30:02;;;;;;;24.25;13.32;;;;;;;-149.78;100.00;50004.03;5064417;28;20056;-61
2021/09/09 04:32:28;;;;;;;24.27;13.85;;;;;;;-149.78;100.00;50006.00;5083343;28;20032;-60
2021/09/09 04:34:53;;;;;;;22.30;12.93;;;;;;;-149.78;100.00;50013.81;5075173;28;20418;-60
2021/09/09 04:37:21;;;;;;;21.25;12.50;;;;;;;-149.78;100.00;49998.19;5090863;28;20076;-61
2021/09/09 04:39:46;;;;;;;22.33;13.02;;;;;;;-149.78;100.00;50037.28;5069239;28;20117;-61
2021/09/09 04:42:12;;;;;;;25.60;14.07;;;;;;;-149.78;100.00;49990.34;5090698;28;20478;-60
2021/09/09 04:44:38;;;;;;;23.70;13.88;;;;;;;-149.78;100.00;50017.72;5083221;28;20036;-60
2021/09/09 04:47:03;;;;;;;24.45;12.85;;;;;;;-149.78;100.00;49990.34;5072643;28;20032;-60
2021/09/09 04:49:29;;;;;;;22.17;12.82;;;;;;;-149.78;100.00;49986.44;5077515;28;20491;-60
2021/09/09 04:51:55;;;;;;;22.02;12.35;;;;;;;-149.78;100.00;50002.09;5089972;28;20047;-60
2021/09/09 04:54:21;;;;;;;22.75;13.75;;;;;;;-149.78;100.00;49982.53;5088437;28;20044;-60
2021/09/09 04:56:46;;;;;;;23.40;12.20;;;;;;;-149.78;100.00;50025.56;5077260;28;20045;-60
2021/09/09 04:59:12;;;;;;;23.25;13.48;;;;;;;-149.78;100.00;50006.00;5073221;28;20110;-60
2021/09/09 05:01:37;;;;;;;24.05;14.15;;;;;;;-149.78;100.00;49990.34;5095620;28;20043;-60
2021/09/09 05:04:03;;;;;;;21.08;12.43;;;;;;;-149.78;100.00;50013.81;5092263;28;20032;-60
2021/09/09 05:06:29;;;;;;;26.95;13.93;;;;;;;-149.78;100.00;50019.69;5077027;28;20059;-61
2021/09/09 05:08:54;;;;;;;24.58;13.55;;;;;;;-149.78;100.00;50006.00;5092899;28;20068;-60
2021/09/09 05:11:20;;;;;;;22.45;12.65;;;;;;;-149.78;100.00;50023.59;5082691;28;20127;-60
2021/09/09 05:13:46;;;;;;;24.95;13.15;;;;;;;-149.78;100.00;50006.00;5093697;28;20032;-67
2021/09/09 05:16:11;;;;;;;22.42;13.45;;;;;;;-149.78;100.00;50031.41;5087667;28;20059;-67
2021/09/09 05:18:37;;;;;;;27.48;13.68;;;;;;;-149.78;100.00;50006.00;5074724;28;20047;-67
2021/09/09 05:21:05;;;;;;;23.13;12.98;;;;;;;-149.78;100.00;50029.47;5090067;28;20100;-67
2021/09/09 05:23:31;;;;;;;21.30;12.93;;;;;;;-149.78;100.00;50017.72;5094605;28;20032;-67
2021/09/09 05:25:57;;;;;;;24.63;14.32;;;;;;;-149.78;100.00;50041.19;5092180;28;20048;-67
2021/09/09 05:28:22;;;;;;;24.90;14.25;;;;;;;-149.78;100.00;50041.19;5057250;28;20435;-67
2021/09/09 05:30:48;;;;;;;26.42;14.23;;;;;;;-149.78;100.00;50006.00;5075116;28;20040;-67
2021/09/09 05:33:14;;;;;;;24.50;14.95;;;;;;;-149.78;100.00;50021.63;5091534;28;20410;-67
2021/09/09 05:35:41;;;;;;;25.25;13.93;;;;;;;-149.78;100.00;50039.25;5089283;28;20115;-67
2021/09/09 05:38:07;;;;;;;26.38;14.27;;;;;;;-149.78;100.00;50049.03;5092053;28;20468;-67
2021/09/09 05:40:33;;;;;;;26.83;13.93;;;;;;;-149.78;100.00;50056.84;5094508;28;20115;-67
2021/09/09 05:42:59;;;;;;;28.25;15.25;;;;;;;-149.78;100.00;50064.66;5092146;28;20191;-67
2021/09/09 05:45:24;;;;;;;29.42;14.60;;;;;;;-149.78;100.00;50056.84;5092277;28;20051;-67
2021/09/09 05:47:52;;;;;;;27.70;14.82;;;;;;;-149.78;100.00;50009.91;5091136;28;20356;-67
2021/09/09 05:50:18;;;;;;;26.40;15.07;;;;;;;-149.78;100.00;50056.84;5070979;28;20089;-67
2021/09/09 05:52:45;;;;;;;35.25;15.68;;;;;;;-149.78;100.00;50021.63;5091514;28;20455;-67
2021/09/09 05:55:11;;;;;;;28.17;14.73;;;;;;;-149.78;100.00;50037.28;5088403;28;20032;-67
2021/09/09 05:57:37;;;;;;;26.00;14.63;;;;;;;-149.78;100.00;50025.56;5092199;28;20040;-67
2021/09/09 06:00:04;;;;;;;27.77;14.77;;;;;;;-149.78;100.00;50056.84;5093174;28;20031;-68
2021/09/09 06:02:30;;;;;;;28.63;15.38;;;;;;;-149.78;100.00;50006.00;5091254;28;20108;-67
2021/09/09 06:04:56;;;;;;;28.02;15.23;;;;;;;-149.78;100.00;50049.03;5089420;28;20126;-67
2021/09/09 06:07:22;;;;;;;25.90;14.73;;;;;;;-149.78;100.00;50007.94;5091436;28;20463;-67
2021/09/09 06:09:48;;;;;;;27.55;15.55;;;;;;;-149.78;100.00;50033.38;5091961;28;20120;-67
2021/09/09 06:12:14;;;;;;;29.80;14.95;;;;;;;-149.78;100.00;50035.34;5088348;28;20075;-67
2021/09/09 06:14:39;;;;;;;25.48;14.48;;;;;;;-149.78;100.00;50017.72;5071535;28;20037;-67
2021/09/09 06:17:05;;;;;;;31.58;15.23;;;;;;;-149.78;100.00;50045.09;5090945;28;20359;-68
2021/09/09 06:19:32;;;;;;;28.73;15.38;;;;;;;-149.78;100.00;50021.63;5088620;28;20456;-66
2021/09/09 06:21:58;;;;;;;30.77;15.73;;;;;;;-149.78;100.00;50049.03;5092179;28;20063;-67
2021/09/09 06:24:24;;;;;;;26.95;15.18;;;;;;;-149.78;100.00;50006.00;5066008;28;20044;-66
2021/09/09 06:26:50;;;;;;;30.05;15.48;;;;;;;-149.78;100.00;50029.47;5089112;28;20028;-66
2021/09/09 06:29:15;;;;;;;29.13;15.60;;;;;;;-149.78;100.00;50049.03;5090921;28;20050;-68
2021/09/09 06:31:41;;;;;;;31.73;17.05;;;;;;;-149.78;100.00;50029.47;5092365;28;20028;-67
2021/09/09 06:34:06;;;;;;;30.15;16.60;;;;;;;-149.78;100.00;50021.63;5069880;28;20463;-67
2021/09/09 06:36:32;;;;;;;32.45;16.45;;;;;;;-149.78;100.00;50045.09;5086796;28;20035;-67
2021/09/09 06:38:58;;;;;;;33.15;17.35;;;;;;;-149.78;100.00;50037.28;5092398;28;20029;-67
2021/09/09 06:41:23;;;;;;;40.10;19.00;;;;;;;-149.78;100.00;50041.19;5092593;28;20081;-67
2021/09/09 06:43:49;;;;;;;36.97;20.25;;;;;;;-149.78;100.00;50035.34;5092807;28;20071;-67
2021/09/09 06:46:14;;;;;;;53.65;25.30;;;;;;;-149.78;100.00;50009.91;5081168;28;20082;-67
2021/09/09 06:48:40;;;;;;;43.65;23.23;;;;;;;-149.78;100.00;50009.91;5072899;28;20028;-66
2021/09/09 06:51:06;;;;;;;42.55;22.65;;;;;;;-149.78;100.00;50023.59;5074212;28;20118;-67
2021/09/09 06:53:32;;;;;;;48.97;24.85;;;;;;;-149.78;100.00;50058.78;5035850;28;20032;-67
2021/09/09 06:55:57;;;;;;;44.58;22.92;;;;;;;-149.78;100.00;50037.28;5068803;28;20031;-67
2021/09/09 06:58:23;;;;;;;51.80;25.58;;;;;;;-149.78;100.00;50023.59;5061556;28;20036;-66
2021/09/09 07:00:50;;;;;;;49.10;26.33;;;;;;;-149.78;100.00;50033.38;5061469;28;20482;-67
2021/09/09 07:03:16;;;;;;;47.75;25.55;;;;;;;-149.78;100.00;50037.28;5086465;28;20048;-68
2021/09/09 07:05:42;;;;;;;52.15;26.40;;;;;;;-149.78;100.00;50021.63;5084227;28;20040;-67
2021/09/09 07:08:08;;;;;;;46.25;25.92;;;;;;;-149.78;100.00;50045.09;5091475;28;20482;-67
2021/09/09 07:10:33;;;;;;;43.95;24.95;;;;;;;-149.78;100.00;50041.19;5089903;28;20479;-67
2021/09/09 07:12:59;;;;;;;47.45;24.73;;;;;;;-149.78;100.00;49994.25;5091552;28;20039;-67
2021/09/09 07:15:25;;;;;;;44.03;23.30;;;;;;;-149.78;100.00;50017.72;5091065;28;20024;-67
2021/09/09 07:17:50;;;;;;;43.70;23.30;;;;;;;-149.78;100.00;49994.25;5091873;28;20054;-66
2021/09/09 07:20:16;;;;;;;47.45;23.65;;;;;;;-149.78;100.00;50033.38;5084111;28;20492;-65
2021/09/09 07:22:42;;;;;;;46.28;22.67;;;;;;;-149.78;100.00;50025.56;5084731;28;20054;-66
2021/09/09 07:25:09;;;;;;;40.83;22.15;;;;;;;-149.78;100.00;49996.22;5090250;28;20028;-66
2021/09/09 07:27:36;;;;;;;49.72;24.27;;;;;;;-149.78;100.00;49962.97;5088741;28;20280;-66
2021/09/09 07:30:04;;;;;;;47.10;23.63;;;;;;;-149.78;100.00;49980.56;5090313;28;20028;-66
2021/09/09 07:32:30;;;;;;;49.45;26.08;;;;;;;-149.78;100.00;50002.09;5091338;28;20077;-69
2021/09/09 07:34:56;;;;;;;51.25;26.05;;;;;;;-149.78;100.00;50033.38;5087397;28;20036;-66
2021/09/09 07:37:21;;;;;;;48.90;24.58;;;;;;;-149.78;100.00;49982.53;5085978;28;20354;-66
2021/09/09 07:39:47;;;;;;;51.28;25.70;;;;;;;-149.78;100.00;50031.41;5056943;28;20141;-66
2021/09/09 07:42:13;;;;;;;53.45;26.88;;;;;;;-149.78;100.00;50011.88;5092235;28;20104;-66
2021/09/09 07:44:39;;;;;;;53.92;28.00;;;;;;;-149.78;100.00;49962.97;5091068;28;20036;-65
2021/09/09 07:47:05;;;;;;;49.88;27.55;;;;;;;-149.78;100.00;49959.06;5089419;28;20036;-65
2021/09/09 07:49:31;;;;;;;49.05;25.15;;;;;;;-149.78;100.00;49962.97;5083921;28;20039;-65
2021/09/09 07:51:57;;;;;;;51.30;26.55;;;;;;;-149.78;100.00;49939.50;5079496;28;20060;-65
2021/09/09 07:54:23;;;;;;;54.47;27.52;;;;;;;-149.78;100.00;49939.50;5076704;28;20071;-66
2021/09/09 07:56:48;;;;;;;48.63;27.00;;;;;;;-149.78;100.00;49959.06;5056386;28;20093;-65
2021/09/09 07:59:15;;;;;;;49.63;27.45;;;;;;;-149.78;100.00;49939.50;5076510;28;20098;-65
2021/09/09 08:01:43;;;;;;;53.65;28.73;;;;;;;-149.78;100.00;49990.34;5081447;28;20115;-65
2021/09/09 08:04:15;;;;;;;55.70;28.95;;;;;;;-149.78;100.00;49955.16;5076478;28;20042;-65
2021/09/09 08:06:41;;;;;;;56.88;30.27;;;;;;;-149.78;100.00;49988.41;5085219;28;20043;-67
2021/09/09 08:09:09;;;;;;;49.67;29.00;;;;;;;-149.78;100.00;49962.97;5073446;28;20548;-66
2021/09/09 08:11:34;;;;;;;54.22;28.38;;;;;;;-149.78;100.00;49949.28;5076564;28;20139;-66
2021/09/09 08:14:01;;;;;;;59.00;29.92;;;;;;;-149.78;100.00;49955.16;5084733;28;20077;-66
2021/09/09 08:16:26;;;;;;;55.20;29.40;;;;;;;-149.78;100.00;49968.84;5087241;28;20413;-65
2021/09/09 08:18:52;;;;;;;54.85;31.50;;;;;;;-149.78;100.00;49990.34;5076953;28;20048;-65
2021/09/09 08:21:18;;;;;;;59.90;31.63;;;;;;;-149.78;100.00;49994.25;5092075;28;20039;-65
2021/09/09 08:23:43;;;;;;;58.78;31.15;;;;;;;-149.78;100.00;49980.56;5094277;28;20062;-65
2021/09/09 08:26:10;;;;;;;69.03;34.33;;;;;;;-149.78;100.00;49951.25;5079565;28;20048;-65
2021/09/09 08:28:36;;;;;;;60.00;31.88;;;;;;;-149.78;100.00;49933.66;5083506;28;20044;-68
2021/09/09 08:31:02;;;;;;;57.67;30.55;;;;;;;-149.78;100.00;49939.50;5089843;28;20439;-66
2021/09/09 08:33:28;;;;;;;52.08;30.58;;;;;;;-149.78;100.00;49931.69;5086924;28;20040;-66
2021/09/09 08:35:53;;;;;;;55.35;29.15;;;;;;;-149.78;100.00;49949.28;5089702;28;20047;-66
2021/09/09 08:38:19;;;;;;;54.63;28.15;;;;;;;-149.78;100.00;49873.03;5080310;28;20036;-65
2021/09/09 08:40:49;;;;;;;49.17;27.88;;;;;;;-149.78;100.00;49927.78;5087637;28;20051;-65
2021/09/09 08:43:15;;;;;;;51.13;28.27;;;;;;;-149.78;100.00;49867.16;5085868;28;20025;-66
2021/09/09 08:45:41;;;;;;;50.78;26.85;;;;;;;-149.78;100.00;49882.81;5064332;28;20044;-66
2021/09/09 08:48:08;;;;;;;47.33;25.52;;;;;;;-149.78;99.31;49857.38;5084950;28;20024;-66
2021/09/09 08:50:34;;;;;;;43.60;24.67;;;;;;;-149.78;98.45;49849.56;5088769;28;20435;-66
2021/09/09 08:53:01;;;;;;;39.35;23.52;;;;;;;-149.78;97.96;49822.19;5066667;28;20056;-66
2021/09/09 08:55:27;;;;;;;43.17;23.85;;;;;;;-149.78;90.87;49814.34;5089970;28;20043;-66
2021/09/09 08:57:56;;;;;;;39.45;24.38;;;;;;;-149.78;87.47;49814.34;5090756;28;20040;-66
2021/09/09 09:00:22;;;;;;;41.30;22.77;;;;;;;-149.78;86.53;49806.53;5088934;28;20036;-66
2021/09/09 09:02:53;;;;;;;42.67;23.35;;;;;;;-149.78;84.49;49798.72;5086967;28;20054;-63
2021/09/09 09:05:19;;;;;;;41.90;23.55;;;;;;;-149.78;80.94;49794.81;5076830;28;20439;-63
2021/09/09 09:07:45;;;;;;;41.33;24.67;;;;;;;-149.78;77.37;49828.03;5066990;28;20045;-64
2021/09/09 09:10:11;;;;;;;36.78;22.00;;;;;;;-149.78;80.77;49837.81;5084026;28;20035;-64
2021/09/09 09:12:44;;;;;;;39.17;23.50;;;;;;;-149.78;82.71;49822.19;5083394;28;20032;-63
2021/09/09 09:15:23;;;;;;;31.25;19.15;;;;;;;-149.78;80.92;49853.47;5091888;28;20031;-63
2021/09/09 09:17:57;;;;;;;29.20;18.23;;;;;;;-149.78;88.91;49863.25;5092442;28;20145;-63
2021/09/09 09:20:25;;;;;;;30.13;17.17;;;;;;;-149.78;89.38;49869.13;5089023;28;20040;-63
2021/09/09 09:22:54;;;;;;;32.22;19.38;;;;;;;-149.78;89.79;49853.47;5089766;28;20345;-64
2021/09/09 09:25:47;;;;;;;32.97;18.63;;;;;;;-149.78;88.79;49888.66;5077905;28;20024;-65
2021/09/09 09:28:12;;;;;;;35.33;19.88;;;;;;;-149.78;89.59;49849.56;5079135;28;20024;-65
2021/09/09 09:30:38;;;;;;;29.65;17.85;;;;;;;-149.78;85.75;49841.72;5080820;28;20031;-65
2021/09/09 09:33:04;;;;;;;31.42;17.52;;;;;;;-149.78;85.27;49861.28;5090335;28;20032;-66
2021/09/09 09:35:30;;;;;;;34.13;18.50;;;;;;;-149.78;86.99;49876.94;5086400;28;20028;-65
2021/09/09 09:38:10;;;;;;;29.38;17.70;;;;;;;-149.78;88.09;49873.03;5081729;28;20037;-66
2021/09/09 09:40:44;;;;;;;29.23;18.63;;;;;;;-149.78;86.34;49894.53;5089010;28;20094;-65
2021/09/09 09:43:11;;;;;;;32.20;17.17;;;;;;;-149.78;86.97;49859.34;5089013;28;20239;-65
2021/09/09 09:45:48;;;;;;;25.80;16.10;;;;;;;-149.78;89.20;49845.66;5087969;28;20056;-65
2021/09/09 09:48:28;;;;;;;31.17;17.27;;;;;;;-149.78;89.93;49888.66;5075122;28;20024;-65
2021/09/09 09:50:54;;;;;;;30.63;17.08;;;;;;;-149.78;90.17;49865.19;5090878;28;20035;-65
2021/09/09 09:53:21;;;;;;;34.08;16.83;;;;;;;-149.78;91.16;49857.38;5059353;28;20028;-66
2021/09/09 09:55:48;;;;;;;30.45;17.17;;;;;;;-149.78;90.01;49857.38;5091787;28;20051;-66
2021/09/09 09:58:17;;;;;;;31.63;17.95;;;;;;;-149.78;91.87;49876.94;5093882;28;20357;-65
2021/09/09 10:00:43;;;;;;;29.63;16.52;;;;;;;-149.78;93.47;49873.03;5083546;28;20036;-65
2021/09/09 10:03:09;;;;;;;26.17;15.63;;;;;;;-149.78;92.88;49873.03;5076261;28;20043;-65
2021/09/09 10:05:38;;;;;;;22.70;15.18;;;;;;;-149.78;92.07;49845.66;5079173;28;20502;-65
2021/09/09 10:08:05;;;;;;;27.92;16.73;;;;;;;-149.78;90.09;49869.13;5066460;28;20024;-65
2021/09/09 10:10:31;;;;;;;25.52;15.82;;;;;;;-149.78;95.46;49865.19;5075217;28;20032;-65
2021/09/09 10:12:57;;;;;;;30.88;17.05;;;;;;;-149.78;94.65;49833.91;5079423;28;20080;-65
2021/09/09 10:15:24;;;;;;;28.42;16.67;;;;;;;-149.78;94.56;49888.66;5080998;28;20044;-65
2021/09/09 10:17:52;;;;;;;25.52;15.32;;;;;;;-149.78;96.11;49884.75;5084458;28;20056;-65
2021/09/09 10:20:29;;;;;;;30.20;17.30;;;;;;;-149.78;93.58;49837.81;5085095;28;20078;-66
2021/09/09 10:23:03;;;;;;;26.80;16.33;;;;;;;-149.78;93.99;49845.66;5090198;28;20111;-65
2021/09/09 10:25:53;;;;;;;33.20;18.52;;;;;;;-149.78;98.43;49884.75;5085803;28;20056;-65
2021/09/09 10:28:45;;;;;;;36.78;19.65;;;;;;;-149.78;99.84;49900.41;5087067;28;20036;-65
2021/09/09 10:31:18;;;;;;;29.45;16.20;;;;;;;-149.78;99.17;49908.22;5073959;28;20032;-65
2021/09/09 10:34:06;;;;;;;33.50;16.50;;;;;;;-149.78;97.01;49861.28;5076446;28;20052;-65
2021/09/09 10:36:44;;;;;;;30.50;15.70;;;;;;;-149.78;94.79;49876.94;5086842;28;20032;-65
2021/09/09 10:39:11;;;;;;;28.70;14.82;;;;;;;-149.78;93.02;49871.06;5087713;28;20047;-65
2021/09/09 10:41:36;;;;;;;29.75;16.20;;;;;;;-149.78;88.45;49822.19;5087340;28;20039;-65
2021/09/09 10:44:04;;;;;;;27.70;16.30;;;;;;;-149.78;84.78;49837.81;5083318;28;20032;-65
2021/09/09 10:46:33;;;;;;;28.10;16.33;;;;;;;-149.78;80.42;49802.63;5089003;28;20032;-65
2021/09/09 10:49:10;;;;;;;29.80;17.13;;;;;;;-149.78;72.48;49802.63;5091199;28;20047;-65
2021/09/09 10:51:36;;;;;;;22.70;14.88;;;;;;;-149.78;72.84;49794.81;5081145;28;20449;-65
2021/09/09 10:54:03;;;;;;;27.08;16.05;;;;;;;-149.78;74.49;49814.34;5088185;28;20032;-65